sensor_id;sensor_type;location;lat;lon;timestamp;P1;durP1;ratioP1;P2;durP2;ratioP2
10535;SDS011;5316;49.538;8.352;2024-03-22T00:02:02;14.40;;;11.90;;
10535;SDS011;5316;49.538;8.352;2024-03-22T00:04:29;14.73;;;11.27;;
10535;SDS011;5316;49.538;8.352;2024-03-22T00:06:55;12.90;;;11.03;;
10535;SDS011;5316;49.538;8.352;2024-03-22T00:09:22;12.63;;;11.03;;
10535;SDS011;5316;49.538;8.352;2024-03-22T00:11:48;14.63;;;11.57;;
10535;SDS011;5316;49.538;8.352;2024-03-22T00:14:16;13.03;;;10.97;;
10535;SDS011;5316;49.538;8.352;2024-03-22T00:16:42;15.63;;;11.13;;
10535;SDS011;5316;49.538;8.352;2024-03-22T00:19:09;11.40;;;10.27;;
10535;SDS011;5316;49.538;8.352;2024-03-22T00:21:35;11.40;;;10.20;;
10535;SDS011;5316;49.538;8.352;2024-03-22T00:24:02;10.77;;;9.20;;
10535;SDS011;5316;49.538;8.352;2024-03-22T00:26:28;12.70;;;10.60;;
10535;SDS011;5316;49.538;8.352;2024-03-22T00:28:55;14.60;;;11.03;;
10535;SDS011;5316;49.538;8.352;2024-03-22T00:31:24;12.30;;;10.07;;
10535;SDS011;5316;49.538;8.352;2024-03-22T00:33:57;11.70;;;9.30;;
10535;SDS011;5316;49.538;8.352;2024-03-22T00:36:23;10.67;;;9.43;;
10535;SDS011;5316;49.538;8.352;2024-03-22T00:38:50;11.23;;;9.27;;
10535;SDS011;5316;49.538;8.352;2024-03-22T00:41:15;12.87;;;10.07;;
10535;SDS011;5316;49.538;8.352;2024-03-22T00:43:42;12.47;;;10.20;;
10535;SDS011;5316;49.538;8.352;2024-03-22T00:46:08;12.63;;;9.40;;
10535;SDS011;5316;49.538;8.352;2024-03-22T00:48:36;11.00;;;9.80;;
10535;SDS011;5316;49.538;8.352;2024-03-22T00:51:02;14.03;;;10.07;;
10535;SDS011;5316;49.538;8.352;2024-03-22T00:53:31;14.37;;;9.93;;
10535;SDS011;5316;49.538;8.352;2024-03-22T00:55:57;12.83;;;10.53;;
10535;SDS011;5316;49.538;8.352;2024-03-22T00:58:25;13.40;;;10.17;;
10535;SDS011;5316;49.538;8.352;2024-03-22T01:00:51;12.63;;;10.33;;
10535;SDS011;5316;49.538;8.352;2024-03-22T01:03:19;13.77;;;10.93;;
10535;SDS011;5316;49.538;8.352;2024-03-22T01:05:47;13.43;;;10.53;;
10535;SDS011;5316;49.538;8.352;2024-03-22T01:08:14;14.80;;;10.90;;
10535;SDS011;5316;49.538;8.352;2024-03-22T01:10:40;13.90;;;11.20;;
10535;SDS011;5316;49.538;8.352;2024-03-22T01:13:07;14.90;;;11.53;;
10535;SDS011;5316;49.538;8.352;2024-03-22T01:18:01;15.83;;;9.87;;
10535;SDS011;5316;49.538;8.352;2024-03-22T01:20:28;13.20;;;10.60;;
10535;SDS011;5316;49.538;8.352;2024-03-22T01:22:55;12.97;;;10.27;;
10535;SDS011;5316;49.538;8.352;2024-03-22T01:25:22;14.97;;;10.23;;
10535;SDS011;5316;49.538;8.352;2024-03-22T01:27:48;13.00;;;10.70;;
10535;SDS011;5316;49.538;8.352;2024-03-22T01:30:14;14.30;;;10.07;;
10535;SDS011;5316;49.538;8.352;2024-03-22T01:32:40;12.23;;;10.30;;
10535;SDS011;5316;49.538;8.352;2024-03-22T01:35:07;14.97;;;10.50;;
10535;SDS011;5316;49.538;8.352;2024-03-22T01:37:33;15.27;;;11.17;;
10535;SDS011;5316;49.538;8.352;2024-03-22T01:40:02;15.00;;;10.10;;
10535;SDS011;5316;49.538;8.352;2024-03-22T01:42:28;13.67;;;9.60;;
10535;SDS011;5316;49.538;8.352;2024-03-22T01:44:55;13.47;;;10.47;;
10535;SDS011;5316;49.538;8.352;2024-03-22T01:47:21;13.03;;;10.23;;
10535;SDS011;5316;49.538;8.352;2024-03-22T01:49:48;15.00;;;10.43;;
10535;SDS011;5316;49.538;8.352;2024-03-22T01:52:15;11.03;;;9.83;;
10535;SDS011;5316;49.538;8.352;2024-03-22T01:54:42;13.13;;;10.20;;
10535;SDS011;5316;49.538;8.352;2024-03-22T01:57:09;11.30;;;9.13;;
10535;SDS011;5316;49.538;8.352;2024-03-22T01:59:36;11.13;;;9.40;;
10535;SDS011;5316;49.538;8.352;2024-03-22T02:02:03;9.97;;;8.53;;
10535;SDS011;5316;49.538;8.352;2024-03-22T02:04:30;10.53;;;8.50;;
10535;SDS011;5316;49.538;8.352;2024-03-22T02:06:56;8.83;;;7.83;;
10535;SDS011;5316;49.538;8.352;2024-03-22T02:09:23;9.53;;;8.17;;
10535;SDS011;5316;49.538;8.352;2024-03-22T02:11:49;8.63;;;7.73;;
10535;SDS011;5316;49.538;8.352;2024-03-22T02:14:17;10.80;;;8.00;;
10535;SDS011;5316;49.538;8.352;2024-03-22T02:16:43;9.97;;;8.43;;
10535;SDS011;5316;49.538;8.352;2024-03-22T02:19:10;11.33;;;8.00;;
10535;SDS011;5316;49.538;8.352;2024-03-22T02:21:36;9.20;;;7.83;;
10535;SDS011;5316;49.538;8.352;2024-03-22T02:24:04;9.17;;;8.10;;
10535;SDS011;5316;49.538;8.352;2024-03-22T02:26:30;9.77;;;8.77;;
10535;SDS011;5316;49.538;8.352;2024-03-22T02:28:57;10.23;;;7.83;;
10535;SDS011;5316;49.538;8.352;2024-03-22T02:31:23;10.40;;;8.30;;
10535;SDS011;5316;49.538;8.352;2024-03-22T02:33:50;10.07;;;7.87;;
10535;SDS011;5316;49.538;8.352;2024-03-22T02:36:16;11.57;;;7.50;;
10535;SDS011;5316;49.538;8.352;2024-03-22T02:38:43;8.07;;;5.80;;
10535;SDS011;5316;49.538;8.352;2024-03-22T02:41:10;7.70;;;6.13;;
10535;SDS011;5316;49.538;8.352;2024-03-22T02:43:37;7.10;;;6.40;;
10535;SDS011;5316;49.538;8.352;2024-03-22T02:46:03;7.10;;;6.37;;
10535;SDS011;5316;49.538;8.352;2024-03-22T02:48:30;7.47;;;6.77;;
10535;SDS011;5316;49.538;8.352;2024-03-22T02:50:56;7.67;;;6.70;;
10535;SDS011;5316;49.538;8.352;2024-03-22T02:53:23;8.93;;;7.07;;
10535;SDS011;5316;49.538;8.352;2024-03-22T02:55:49;11.53;;;7.57;;
10535;SDS011;5316;49.538;8.352;2024-03-22T02:58:20;8.13;;;6.33;;
10535;SDS011;5316;49.538;8.352;2024-03-22T03:00:46;6.30;;;5.70;;
10535;SDS011;5316;49.538;8.352;2024-03-22T03:03:13;7.40;;;6.20;;
10535;SDS011;5316;49.538;8.352;2024-03-22T03:05:39;7.13;;;6.37;;
10535;SDS011;5316;49.538;8.352;2024-03-22T03:08:06;7.73;;;6.63;;
10535;SDS011;5316;49.538;8.352;2024-03-22T03:10:32;10.07;;;6.53;;
10535;SDS011;5316;49.538;8.352;2024-03-22T03:12:59;7.93;;;7.07;;
10535;SDS011;5316;49.538;8.352;2024-03-22T03:15:26;7.63;;;6.57;;
10535;SDS011;5316;49.538;8.352;2024-03-22T03:17:52;9.10;;;7.63;;
10535;SDS011;5316;49.538;8.352;2024-03-22T03:20:18;10.73;;;7.10;;
10535;SDS011;5316;49.538;8.352;2024-03-22T03:22:45;11.93;;;7.53;;
10535;SDS011;5316;49.538;8.352;2024-03-22T03:25:11;8.93;;;7.27;;
10535;SDS011;5316;49.538;8.352;2024-03-22T03:27:37;8.93;;;7.70;;
10535;SDS011;5316;49.538;8.352;2024-03-22T03:30:03;10.37;;;7.87;;
10535;SDS011;5316;49.538;8.352;2024-03-22T03:32:32;8.17;;;7.13;;
10535;SDS011;5316;49.538;8.352;2024-03-22T03:34:58;8.47;;;7.60;;
10535;SDS011;5316;49.538;8.352;2024-03-22T03:37:24;8.60;;;7.70;;
10535;SDS011;5316;49.538;8.352;2024-03-22T03:39:50;8.43;;;7.30;;
10535;SDS011;5316;49.538;8.352;2024-03-22T03:42:17;9.07;;;7.53;;
10535;SDS011;5316;49.538;8.352;2024-03-22T03:44:43;12.43;;;8.60;;
10535;SDS011;5316;49.538;8.352;2024-03-22T03:47:09;8.83;;;7.60;;
10535;SDS011;5316;49.538;8.352;2024-03-22T03:49:36;9.40;;;7.57;;
10535;SDS011;5316;49.538;8.352;2024-03-22T03:52:03;8.20;;;7.40;;
10535;SDS011;5316;49.538;8.352;2024-03-22T03:54:29;9.80;;;7.80;;
10535;SDS011;5316;49.538;8.352;2024-03-22T03:56:56;9.30;;;7.73;;
10535;SDS011;5316;49.538;8.352;2024-03-22T03:59:21;9.47;;;8.10;;
10535;SDS011;5316;49.538;8.352;2024-03-22T04:01:48;9.77;;;8.53;;
10535;SDS011;5316;49.538;8.352;2024-03-22T04:04:14;9.57;;;7.80;;
10535;SDS011;5316;49.538;8.352;2024-03-22T04:06:43;8.53;;;7.50;;
10535;SDS011;5316;49.538;8.352;2024-03-22T04:09:09;8.03;;;7.13;;
10535;SDS011;5316;49.538;8.352;2024-03-22T04:11:36;10.33;;;8.13;;
10535;SDS011;5316;49.538;8.352;2024-03-22T04:14:02;10.53;;;7.70;;
10535;SDS011;5316;49.538;8.352;2024-03-22T04:16:29;17.43;;;12.73;;
10535;SDS011;5316;49.538;8.352;2024-03-22T04:18:55;12.80;;;9.20;;
10535;SDS011;5316;49.538;8.352;2024-03-22T04:21:21;10.57;;;8.63;;
10535;SDS011;5316;49.538;8.352;2024-03-22T04:23:48;9.60;;;8.10;;
10535;SDS011;5316;49.538;8.352;2024-03-22T04:26:15;11.53;;;8.90;;
10535;SDS011;5316;49.538;8.352;2024-03-22T04:28:41;10.33;;;9.03;;
10535;SDS011;5316;49.538;8.352;2024-03-22T04:31:08;11.23;;;9.23;;
10535;SDS011;5316;49.538;8.352;2024-03-22T04:33:34;13.10;;;9.13;;
10535;SDS011;5316;49.538;8.352;2024-03-22T04:36:02;11.23;;;9.57;;
10535;SDS011;5316;49.538;8.352;2024-03-22T04:38:28;11.17;;;9.37;;
10535;SDS011;5316;49.538;8.352;2024-03-22T04:40:57;11.33;;;10.13;;
10535;SDS011;5316;49.538;8.352;2024-03-22T04:43:24;9.10;;;8.20;;
10535;SDS011;5316;49.538;8.352;2024-03-22T04:45:51;24.97;;;17.80;;
10535;SDS011;5316;49.538;8.352;2024-03-22T04:48:18;13.67;;;10.20;;
10535;SDS011;5316;49.538;8.352;2024-03-22T04:50:45;11.77;;;8.37;;
10535;SDS011;5316;49.538;8.352;2024-03-22T04:53:14;9.13;;;8.23;;
10535;SDS011;5316;49.538;8.352;2024-03-22T04:55:42;13.73;;;8.30;;
10535;SDS011;5316;49.538;8.352;2024-03-22T04:58:12;10.90;;;9.40;;
10535;SDS011;5316;49.538;8.352;2024-03-22T05:00:38;12.37;;;9.90;;
10535;SDS011;5316;49.538;8.352;2024-03-22T05:03:05;10.97;;;9.20;;
10535;SDS011;5316;49.538;8.352;2024-03-22T05:05:31;13.23;;;8.70;;
10535;SDS011;5316;49.538;8.352;2024-03-22T05:07:57;12.60;;;9.70;;
10535;SDS011;5316;49.538;8.352;2024-03-22T05:10:23;12.30;;;8.93;;
10535;SDS011;5316;49.538;8.352;2024-03-22T05:12:50;12.20;;;8.83;;
10535;SDS011;5316;49.538;8.352;2024-03-22T05:15:17;13.33;;;9.17;;
10535;SDS011;5316;49.538;8.352;2024-03-22T05:17:44;10.70;;;8.37;;
10535;SDS011;5316;49.538;8.352;2024-03-22T05:20:10;10.50;;;8.90;;
10535;SDS011;5316;49.538;8.352;2024-03-22T05:22:37;10.53;;;8.63;;
10535;SDS011;5316;49.538;8.352;2024-03-22T05:25:03;9.43;;;8.30;;
10535;SDS011;5316;49.538;8.352;2024-03-22T05:27:30;11.17;;;8.87;;
10535;SDS011;5316;49.538;8.352;2024-03-22T05:29:57;11.47;;;8.50;;
10535;SDS011;5316;49.538;8.352;2024-03-22T05:32:25;11.10;;;8.80;;
10535;SDS011;5316;49.538;8.352;2024-03-22T05:34:52;9.97;;;8.10;;
10535;SDS011;5316;49.538;8.352;2024-03-22T05:37:18;12.27;;;8.93;;
10535;SDS011;5316;49.538;8.352;2024-03-22T05:39:45;10.63;;;8.80;;
10535;SDS011;5316;49.538;8.352;2024-03-22T05:42:10;11.00;;;8.00;;
10535;SDS011;5316;49.538;8.352;2024-03-22T05:44:37;11.30;;;8.73;;
10535;SDS011;5316;49.538;8.352;2024-03-22T05:47:03;11.30;;;8.50;;
10535;SDS011;5316;49.538;8.352;2024-03-22T05:49:31;11.37;;;9.13;;
10535;SDS011;5316;49.538;8.352;2024-03-22T05:51:57;11.03;;;8.50;;
10535;SDS011;5316;49.538;8.352;2024-03-22T05:54:24;11.90;;;8.10;;
10535;SDS011;5316;49.538;8.352;2024-03-22T05:56:50;11.93;;;8.83;;
10535;SDS011;5316;49.538;8.352;2024-03-22T05:59:17;11.43;;;8.53;;
10535;SDS011;5316;49.538;8.352;2024-03-22T06:01:42;12.23;;;8.60;;
10535;SDS011;5316;49.538;8.352;2024-03-22T06:04:09;10.03;;;8.53;;
10535;SDS011;5316;49.538;8.352;2024-03-22T06:06:36;11.27;;;9.17;;
10535;SDS011;5316;49.538;8.352;2024-03-22T06:09:03;11.03;;;8.23;;
10535;SDS011;5316;49.538;8.352;2024-03-22T06:11:29;9.40;;;7.50;;
10535;SDS011;5316;49.538;8.352;2024-03-22T06:13:56;11.10;;;8.10;;
10535;SDS011;5316;49.538;8.352;2024-03-22T06:16:22;10.27;;;7.93;;
10535;SDS011;5316;49.538;8.352;2024-03-22T06:18:48;8.67;;;7.60;;
10535;SDS011;5316;49.538;8.352;2024-03-22T06:21:14;10.23;;;8.00;;
10535;SDS011;5316;49.538;8.352;2024-03-22T06:23:48;9.47;;;7.73;;
10535;SDS011;5316;49.538;8.352;2024-03-22T06:26:14;10.13;;;8.40;;
10535;SDS011;5316;49.538;8.352;2024-03-22T06:28:40;11.83;;;8.50;;
10535;SDS011;5316;49.538;8.352;2024-03-22T06:31:06;9.20;;;8.30;;
10535;SDS011;5316;49.538;8.352;2024-03-22T06:33:33;9.87;;;8.83;;
10535;SDS011;5316;49.538;8.352;2024-03-22T06:35:59;8.43;;;7.53;;
10535;SDS011;5316;49.538;8.352;2024-03-22T06:38:26;11.00;;;7.93;;
10535;SDS011;5316;49.538;8.352;2024-03-22T06:40:53;9.87;;;7.87;;
10535;SDS011;5316;49.538;8.352;2024-03-22T06:43:20;7.70;;;6.80;;
10535;SDS011;5316;49.538;8.352;2024-03-22T06:45:46;9.40;;;7.97;;
10535;SDS011;5316;49.538;8.352;2024-03-22T06:48:12;9.10;;;7.83;;
10535;SDS011;5316;49.538;8.352;2024-03-22T06:50:39;9.27;;;7.80;;
10535;SDS011;5316;49.538;8.352;2024-03-22T06:53:07;9.87;;;7.43;;
10535;SDS011;5316;49.538;8.352;2024-03-22T06:55:35;9.33;;;8.43;;
10535;SDS011;5316;49.538;8.352;2024-03-22T06:58:03;9.13;;;7.47;;
10535;SDS011;5316;49.538;8.352;2024-03-22T07:00:29;10.47;;;8.03;;
10535;SDS011;5316;49.538;8.352;2024-03-22T07:02:59;9.97;;;7.50;;
10535;SDS011;5316;49.538;8.352;2024-03-22T07:05:27;9.10;;;7.00;;
10535;SDS011;5316;49.538;8.352;2024-03-22T07:07:54;8.87;;;7.17;;
10535;SDS011;5316;49.538;8.352;2024-03-22T07:10:22;6.97;;;6.30;;
10535;SDS011;5316;49.538;8.352;2024-03-22T07:12:52;8.93;;;6.67;;
10535;SDS011;5316;49.538;8.352;2024-03-22T07:15:20;8.23;;;7.43;;
10535;SDS011;5316;49.538;8.352;2024-03-22T07:17:47;13.53;;;10.47;;
10535;SDS011;5316;49.538;8.352;2024-03-22T07:20:13;9.27;;;8.10;;
10535;SDS011;5316;49.538;8.352;2024-03-22T07:22:39;8.40;;;7.60;;
10535;SDS011;5316;49.538;8.352;2024-03-22T07:25:05;8.57;;;6.80;;
10535;SDS011;5316;49.538;8.352;2024-03-22T07:27:34;6.90;;;6.20;;
10535;SDS011;5316;49.538;8.352;2024-03-22T07:30:00;9.77;;;7.03;;
10535;SDS011;5316;49.538;8.352;2024-03-22T07:32:32;8.47;;;6.23;;
10535;SDS011;5316;49.538;8.352;2024-03-22T07:34:58;8.70;;;6.90;;
10535;SDS011;5316;49.538;8.352;2024-03-22T07:37:25;7.00;;;6.30;;
10535;SDS011;5316;49.538;8.352;2024-03-22T07:39:50;8.33;;;6.20;;
10535;SDS011;5316;49.538;8.352;2024-03-22T07:42:17;7.73;;;6.37;;
10535;SDS011;5316;49.538;8.352;2024-03-22T07:44:43;7.03;;;6.33;;
10535;SDS011;5316;49.538;8.352;2024-03-22T07:47:10;11.77;;;7.33;;
10535;SDS011;5316;49.538;8.352;2024-03-22T07:49:37;8.23;;;7.37;;
10535;SDS011;5316;49.538;8.352;2024-03-22T07:52:04;8.60;;;7.40;;
10535;SDS011;5316;49.538;8.352;2024-03-22T07:54:30;12.87;;;8.20;;
10535;SDS011;5316;49.538;8.352;2024-03-22T07:56:57;13.33;;;10.07;;
10535;SDS011;5316;49.538;8.352;2024-03-22T07:59:23;13.23;;;8.80;;
10535;SDS011;5316;49.538;8.352;2024-03-22T08:01:51;7.17;;;6.23;;
10535;SDS011;5316;49.538;8.352;2024-03-22T08:04:16;11.23;;;8.57;;
10535;SDS011;5316;49.538;8.352;2024-03-22T08:06:45;10.10;;;8.07;;
10535;SDS011;5316;49.538;8.352;2024-03-22T08:09:11;10.23;;;7.73;;
10535;SDS011;5316;49.538;8.352;2024-03-22T08:11:37;8.53;;;7.13;;
10535;SDS011;5316;49.538;8.352;2024-03-22T08:14:03;9.43;;;7.40;;
10535;SDS011;5316;49.538;8.352;2024-03-22T08:16:30;7.33;;;6.63;;
10535;SDS011;5316;49.538;8.352;2024-03-22T08:18:55;10.93;;;6.80;;
10535;SDS011;5316;49.538;8.352;2024-03-22T08:21:22;8.20;;;7.27;;
10535;SDS011;5316;49.538;8.352;2024-03-22T08:23:50;12.20;;;7.77;;
10535;SDS011;5316;49.538;8.352;2024-03-22T08:26:17;9.80;;;7.70;;
10535;SDS011;5316;49.538;8.352;2024-03-22T08:28:43;10.37;;;7.63;;
10535;SDS011;5316;49.538;8.352;2024-03-22T08:31:10;9.07;;;8.13;;
10535;SDS011;5316;49.538;8.352;2024-03-22T08:33:35;10.80;;;8.43;;
10535;SDS011;5316;49.538;8.352;2024-03-22T08:36:02;13.53;;;11.50;;
10535;SDS011;5316;49.538;8.352;2024-03-22T08:38:28;11.60;;;10.37;;
10535;SDS011;5316;49.538;8.352;2024-03-22T08:40:56;18.00;;;13.60;;
10535;SDS011;5316;49.538;8.352;2024-03-22T08:43:22;14.03;;;12.03;;
10535;SDS011;5316;49.538;8.352;2024-03-22T08:45:50;185.53;;;38.20;;
10535;SDS011;5316;49.538;8.352;2024-03-22T08:48:16;54.77;;;18.43;;
10535;SDS011;5316;49.538;8.352;2024-03-22T08:50:43;17.77;;;10.70;;
10535;SDS011;5316;49.538;8.352;2024-03-22T08:53:09;12.10;;;9.50;;
10535;SDS011;5316;49.538;8.352;2024-03-22T08:55:36;23.20;;;11.03;;
10535;SDS011;5316;49.538;8.352;2024-03-22T08:58:03;14.83;;;8.87;;
10535;SDS011;5316;49.538;8.352;2024-03-22T09:00:30;12.87;;;8.80;;
10535;SDS011;5316;49.538;8.352;2024-03-22T09:02:55;11.83;;;8.93;;
10535;SDS011;5316;49.538;8.352;2024-03-22T09:05:22;8.30;;;7.20;;
10535;SDS011;5316;49.538;8.352;2024-03-22T09:07:48;10.77;;;8.13;;
10535;SDS011;5316;49.538;8.352;2024-03-22T09:10:15;15.10;;;10.87;;
10535;SDS011;5316;49.538;8.352;2024-03-22T09:12:41;13.80;;;10.93;;
10535;SDS011;5316;49.538;8.352;2024-03-22T09:15:09;12.87;;;8.37;;
10535;SDS011;5316;49.538;8.352;2024-03-22T09:17:35;7.27;;;6.53;;
10535;SDS011;5316;49.538;8.352;2024-03-22T09:20:02;8.10;;;7.30;;
10535;SDS011;5316;49.538;8.352;2024-03-22T09:22:29;11.27;;;7.70;;
10535;SDS011;5316;49.538;8.352;2024-03-22T09:24:57;9.97;;;7.57;;
10535;SDS011;5316;49.538;8.352;2024-03-22T09:27:23;28.20;;;19.87;;
10535;SDS011;5316;49.538;8.352;2024-03-22T09:29:50;12.47;;;9.20;;
10535;SDS011;5316;49.538;8.352;2024-03-22T09:32:17;8.57;;;7.53;;
10535;SDS011;5316;49.538;8.352;2024-03-22T09:34:44;11.53;;;8.13;;
10535;SDS011;5316;49.538;8.352;2024-03-22T09:37:09;7.83;;;7.10;;
10535;SDS011;5316;49.538;8.352;2024-03-22T09:39:36;7.90;;;7.20;;
10535;SDS011;5316;49.538;8.352;2024-03-22T09:42:02;10.53;;;7.50;;
10535;SDS011;5316;49.538;8.352;2024-03-22T09:44:32;10.37;;;6.93;;
10535;SDS011;5316;49.538;8.352;2024-03-22T09:46:58;9.07;;;6.40;;
10535;SDS011;5316;49.538;8.352;2024-03-22T09:49:27;6.60;;;6.00;;
10535;SDS011;5316;49.538;8.352;2024-03-22T09:51:52;8.43;;;6.20;;
10535;SDS011;5316;49.538;8.352;2024-03-22T09:54:21;8.00;;;5.83;;
10535;SDS011;5316;49.538;8.352;2024-03-22T09:56:48;6.20;;;5.53;;
10535;SDS011;5316;49.538;8.352;2024-03-22T09:59:16;9.30;;;6.10;;
10535;SDS011;5316;49.538;8.352;2024-03-22T10:01:42;9.27;;;6.37;;
10535;SDS011;5316;49.538;8.352;2024-03-22T10:04:10;7.73;;;5.80;;
10535;SDS011;5316;49.538;8.352;2024-03-22T10:06:37;9.03;;;6.43;;
10535;SDS011;5316;49.538;8.352;2024-03-22T10:09:04;5.17;;;4.70;;
10535;SDS011;5316;49.538;8.352;2024-03-22T10:11:30;5.70;;;5.20;;
10535;SDS011;5316;49.538;8.352;2024-03-22T10:13:59;12.60;;;7.07;;
10535;SDS011;5316;49.538;8.352;2024-03-22T10:16:26;5.57;;;4.60;;
10535;SDS011;5316;49.538;8.352;2024-03-22T10:18:52;5.80;;;5.03;;
10535;SDS011;5316;49.538;8.352;2024-03-22T10:21:19;5.90;;;3.70;;
10535;SDS011;5316;49.538;8.352;2024-03-22T10:23:47;4.30;;;3.23;;
10535;SDS011;5316;49.538;8.352;2024-03-22T10:26:15;3.53;;;3.33;;
10535;SDS011;5316;49.538;8.352;2024-03-22T10:28:45;5.03;;;4.10;;
10535;SDS011;5316;49.538;8.352;2024-03-22T10:31:11;5.60;;;4.20;;
10535;SDS011;5316;49.538;8.352;2024-03-22T10:33:39;3.93;;;3.57;;
10535;SDS011;5316;49.538;8.352;2024-03-22T10:36:06;5.40;;;3.83;;
10535;SDS011;5316;49.538;8.352;2024-03-22T10:38:33;4.07;;;3.70;;
10535;SDS011;5316;49.538;8.352;2024-03-22T10:41:04;6.97;;;3.57;;
10535;SDS011;5316;49.538;8.352;2024-03-22T10:43:31;7.53;;;6.67;;
10535;SDS011;5316;49.538;8.352;2024-03-22T10:45:59;4.90;;;3.90;;
10535;SDS011;5316;49.538;8.352;2024-03-22T10:48:29;4.73;;;3.50;;
10535;SDS011;5316;49.538;8.352;2024-03-22T10:50:57;5.50;;;3.70;;
10535;SDS011;5316;49.538;8.352;2024-03-22T10:53:26;3.50;;;3.20;;
10535;SDS011;5316;49.538;8.352;2024-03-22T10:55:53;5.33;;;3.80;;
10535;SDS011;5316;49.538;8.352;2024-03-22T10:58:26;4.10;;;3.77;;
10535;SDS011;5316;49.538;8.352;2024-03-22T11:00:52;4.37;;;3.23;;
10535;SDS011;5316;49.538;8.352;2024-03-22T11:03:19;5.47;;;3.33;;
10535;SDS011;5316;49.538;8.352;2024-03-22T11:05:45;4.17;;;3.40;;
10535;SDS011;5316;49.538;8.352;2024-03-22T11:08:12;3.40;;;2.70;;
10535;SDS011;5316;49.538;8.352;2024-03-22T11:10:38;3.40;;;3.10;;
10535;SDS011;5316;49.538;8.352;2024-03-22T11:13:06;4.10;;;2.60;;
10535;SDS011;5316;49.538;8.352;2024-03-22T11:15:33;2.83;;;2.60;;
10535;SDS011;5316;49.538;8.352;2024-03-22T11:18:00;5.33;;;2.77;;
10535;SDS011;5316;49.538;8.352;2024-03-22T11:20:26;4.17;;;3.33;;
10535;SDS011;5316;49.538;8.352;2024-03-22T11:22:53;4.67;;;3.17;;
10535;SDS011;5316;49.538;8.352;2024-03-22T11:25:19;4.37;;;2.90;;
10535;SDS011;5316;49.538;8.352;2024-03-22T11:27:46;3.23;;;2.60;;
10535;SDS011;5316;49.538;8.352;2024-03-22T11:30:12;3.60;;;2.57;;
10535;SDS011;5316;49.538;8.352;2024-03-22T11:32:40;3.47;;;2.83;;
10535;SDS011;5316;49.538;8.352;2024-03-22T11:35:09;3.30;;;3.03;;
10535;SDS011;5316;49.538;8.352;2024-03-22T11:37:36;7.80;;;5.50;;
10535;SDS011;5316;49.538;8.352;2024-03-22T11:40:03;4.20;;;3.47;;
10535;SDS011;5316;49.538;8.352;2024-03-22T11:42:31;3.57;;;3.27;;
10535;SDS011;5316;49.538;8.352;2024-03-22T11:44:58;3.83;;;3.03;;
10535;SDS011;5316;49.538;8.352;2024-03-22T11:47:25;4.80;;;3.83;;
10535;SDS011;5316;49.538;8.352;2024-03-22T11:49:52;5.90;;;3.80;;
10535;SDS011;5316;49.538;8.352;2024-03-22T11:52:23;6.30;;;2.90;;
10535;SDS011;5316;49.538;8.352;2024-03-22T11:54:50;4.40;;;3.20;;
10535;SDS011;5316;49.538;8.352;2024-03-22T11:57:18;4.40;;;2.90;;
10535;SDS011;5316;49.538;8.352;2024-03-22T11:59:45;4.40;;;2.80;;
10535;SDS011;5316;49.538;8.352;2024-03-22T12:02:12;3.90;;;3.20;;
10535;SDS011;5316;49.538;8.352;2024-03-22T12:04:40;3.30;;;3.00;;
10535;SDS011;5316;49.538;8.352;2024-03-22T12:07:10;5.53;;;2.70;;
10535;SDS011;5316;49.538;8.352;2024-03-22T12:09:36;3.08;;;2.60;;
10535;SDS011;5316;49.538;8.352;2024-03-22T12:12:04;3.10;;;2.47;;
10535;SDS011;5316;49.538;8.352;2024-03-22T12:14:32;4.35;;;3.05;;
10535;SDS011;5316;49.538;8.352;2024-03-22T12:16:59;2.70;;;2.50;;
10535;SDS011;5316;49.538;8.352;2024-03-22T12:19:25;2.67;;;2.47;;
10535;SDS011;5316;49.538;8.352;2024-03-22T12:21:52;4.40;;;4.00;;
10535;SDS011;5316;49.538;8.352;2024-03-22T12:24:19;3.08;;;2.70;;
10535;SDS011;5316;49.538;8.352;2024-03-22T12:26:47;4.05;;;3.00;;
10535;SDS011;5316;49.538;8.352;2024-03-22T12:29:15;4.75;;;2.65;;
10535;SDS011;5316;49.538;8.352;2024-03-22T12:31:42;4.90;;;2.75;;
10535;SDS011;5316;49.538;8.352;2024-03-22T12:34:08;5.72;;;2.42;;
10535;SDS011;5316;49.538;8.352;2024-03-22T12:36:35;3.13;;;2.65;;
10535;SDS011;5316;49.538;8.352;2024-03-22T12:39:00;2.45;;;2.25;;
10535;SDS011;5316;49.538;8.352;2024-03-22T12:41:29;2.85;;;2.10;;
10535;SDS011;5316;49.538;8.352;2024-03-22T12:43:56;2.60;;;2.40;;
10535;SDS011;5316;49.538;8.352;2024-03-22T12:46:22;2.78;;;2.30;;
10535;SDS011;5316;49.538;8.352;2024-03-22T12:48:49;2.63;;;2.40;;
10535;SDS011;5316;49.538;8.352;2024-03-22T12:51:16;4.07;;;2.40;;
10535;SDS011;5316;49.538;8.352;2024-03-22T12:53:42;3.67;;;2.50;;
10535;SDS011;5316;49.538;8.352;2024-03-22T12:56:08;3.40;;;2.10;;
10535;SDS011;5316;49.538;8.352;2024-03-22T12:58:35;2.50;;;2.30;;
10535;SDS011;5316;49.538;8.352;2024-03-22T13:01:02;6.63;;;5.95;;
10535;SDS011;5316;49.538;8.352;2024-03-22T13:03:31;3.90;;;2.75;;
10535;SDS011;5316;49.538;8.352;2024-03-22T13:05:58;3.72;;;2.60;;
10535;SDS011;5316;49.538;8.352;2024-03-22T13:08:24;3.88;;;2.67;;
10535;SDS011;5316;49.538;8.352;2024-03-22T13:10:50;3.70;;;3.08;;
10535;SDS011;5316;49.538;8.352;2024-03-22T13:13:17;4.18;;;2.60;;
10535;SDS011;5316;49.538;8.352;2024-03-22T13:15:45;3.78;;;2.90;;
10535;SDS011;5316;49.538;8.352;2024-03-22T13:18:12;5.07;;;2.45;;
10535;SDS011;5316;49.538;8.352;2024-03-22T13:20:39;4.38;;;3.05;;
10535;SDS011;5316;49.538;8.352;2024-03-22T13:23:05;4.32;;;2.78;;
10535;SDS011;5316;49.538;8.352;2024-03-22T13:25:34;4.97;;;2.45;;
10535;SDS011;5316;49.538;8.352;2024-03-22T13:28:01;8.20;;;5.45;;
10535;SDS011;5316;49.538;8.352;2024-03-22T13:30:29;5.00;;;3.15;;
10535;SDS011;5316;49.538;8.352;2024-03-22T13:32:56;4.45;;;2.63;;
10535;SDS011;5316;49.538;8.352;2024-03-22T13:35:24;3.33;;;2.40;;
10535;SDS011;5316;49.538;8.352;2024-03-22T13:37:50;3.30;;;2.58;;
10535;SDS011;5316;49.538;8.352;2024-03-22T13:40:16;2.92;;;2.28;;
10535;SDS011;5316;49.538;8.352;2024-03-22T13:42:42;3.60;;;2.78;;
10535;SDS011;5316;49.538;8.352;2024-03-22T13:45:09;3.50;;;2.72;;
10535;SDS011;5316;49.538;8.352;2024-03-22T13:47:35;4.13;;;2.58;;
10535;SDS011;5316;49.538;8.352;2024-03-22T13:50:04;4.85;;;2.97;;
10535;SDS011;5316;49.538;8.352;2024-03-22T13:52:31;3.72;;;2.53;;
10535;SDS011;5316;49.538;8.352;2024-03-22T13:54:58;4.40;;;2.80;;
10535;SDS011;5316;49.538;8.352;2024-03-22T13:57:26;3.53;;;2.70;;
10535;SDS011;5316;49.538;8.352;2024-03-22T13:59:53;3.10;;;2.60;;
10535;SDS011;5316;49.538;8.352;2024-03-22T14:02:19;3.22;;;2.65;;
10535;SDS011;5316;49.538;8.352;2024-03-22T14:04:46;3.15;;;2.50;;
10535;SDS011;5316;49.538;8.352;2024-03-22T14:07:13;3.10;;;2.80;;
10535;SDS011;5316;49.538;8.352;2024-03-22T14:09:39;4.32;;;2.72;;
10535;SDS011;5316;49.538;8.352;2024-03-22T14:12:06;7.63;;;2.38;;
10535;SDS011;5316;49.538;8.352;2024-03-22T14:14:33;6.53;;;2.75;;
10535;SDS011;5316;49.538;8.352;2024-03-22T14:16:59;4.07;;;2.53;;
10535;SDS011;5316;49.538;8.352;2024-03-22T14:19:26;3.38;;;2.47;;
10535;SDS011;5316;49.538;8.352;2024-03-22T14:21:52;3.42;;;2.63;;
10535;SDS011;5316;49.538;8.352;2024-03-22T14:24:20;4.63;;;2.90;;
10535;SDS011;5316;49.538;8.352;2024-03-22T14:26:46;4.82;;;3.53;;
10535;SDS011;5316;49.538;8.352;2024-03-22T14:29:12;4.28;;;3.80;;
10535;SDS011;5316;49.538;8.352;2024-03-22T14:31:39;3.70;;;3.25;;
10535;SDS011;5316;49.538;8.352;2024-03-22T14:34:05;4.25;;;3.95;;
10535;SDS011;5316;49.538;8.352;2024-03-22T14:36:32;5.30;;;4.13;;
10535;SDS011;5316;49.538;8.352;2024-03-22T14:38:58;4.28;;;3.88;;
10535;SDS011;5316;49.538;8.352;2024-03-22T14:41:26;6.75;;;4.63;;
10535;SDS011;5316;49.538;8.352;2024-03-22T14:43:52;7.43;;;4.88;;
10535;SDS011;5316;49.538;8.352;2024-03-22T14:46:19;5.40;;;4.30;;
10535;SDS011;5316;49.538;8.352;2024-03-22T14:48:49;5.45;;;4.43;;
10535;SDS011;5316;49.538;8.352;2024-03-22T14:51:16;11.65;;;9.07;;
10535;SDS011;5316;49.538;8.352;2024-03-22T14:53:42;11.20;;;7.70;;